createdAt,value
2023-05-10T00:00:00.857Z,0
2023-05-10T00:05:00.858Z,0
2023-05-10T00:10:00.762Z,0
2023-05-10T00:15:00.848Z,0
2023-05-10T00:20:00.651Z,0
2023-05-10T00:25:00.829Z,0
2023-05-10T00:30:00.866Z,0
2023-05-10T00:35:00.632Z,0
2023-05-10T00:40:00.728Z,0
2023-05-10T00:45:00.889Z,0
2023-05-10T00:50:01.083Z,0
2023-05-10T00:55:00.884Z,0
2023-05-10T01:00:00.551Z,0
2023-05-10T01:05:00.817Z,0
2023-05-10T01:10:01.945Z,0
2023-05-10T01:15:00.803Z,0
2023-05-10T01:20:00.879Z,0
2023-05-10T01:25:01.294Z,0
2023-05-10T01:30:09.526Z,0
2023-05-10T01:35:00.857Z,0
2023-05-10T01:40:00.880Z,0
2023-05-10T01:45:01.379Z,0
2023-05-10T01:50:00.920Z,0
2023-05-10T01:55:01.447Z,0
2023-05-10T02:00:01.069Z,0
2023-05-10T02:05:01.200Z,0
2023-05-10T02:10:01.398Z,0
2023-05-10T02:15:01.119Z,0
2023-05-10T02:20:00.923Z,0
2023-05-10T02:25:00.748Z,0
2023-05-10T02:30:01.968Z,0
2023-05-10T02:35:00.941Z,0
2023-05-10T02:40:00.916Z,0
2023-05-10T02:45:02.526Z,0
2023-05-10T02:50:01.723Z,0
2023-05-10T02:55:00.852Z,0
2023-05-10T03:00:00.500Z,0
2023-05-10T03:05:01.220Z,0
2023-05-10T03:10:01.288Z,0
2023-05-10T03:15:01.320Z,0
2023-05-10T03:20:00.734Z,0
2023-05-10T03:25:02.420Z,0
2023-05-10T03:30:00.810Z,0
2023-05-10T03:35:00.920Z,10
2023-05-10T03:40:02.044Z,17
2023-05-10T03:45:00.858Z,31
2023-05-10T03:50:01.178Z,38
2023-05-10T03:55:01.239Z,53
2023-05-10T04:00:00.841Z,63
2023-05-10T04:05:01.112Z,128
2023-05-10T04:10:00.930Z,148
2023-05-10T04:15:00.824Z,138
2023-05-10T04:20:00.806Z,195
2023-05-10T04:25:00.665Z,322
2023-05-10T04:30:01.537Z,362
2023-05-10T04:35:00.792Z,362
2023-05-10T04:40:00.665Z,259
2023-05-10T04:45:00.692Z,259
2023-05-10T04:50:00.842Z,427
2023-05-10T04:55:00.965Z,359
2023-05-10T05:00:00.964Z,179
2023-05-10T05:05:02.049Z,253
2023-05-10T05:10:01.304Z,358
2023-05-10T05:15:01.119Z,424
2023-05-10T05:20:00.554Z,731
2023-05-10T05:25:00.605Z,825
2023-05-10T05:30:02.123Z,1065
2023-05-10T05:35:00.680Z,1528
2023-05-10T05:40:00.675Z,1717
2023-05-10T05:45:00.467Z,1717
2023-05-10T05:50:01.911Z,1353
2023-05-10T05:55:01.060Z,2477
2023-05-10T06:00:00.789Z,2186
2023-05-10T06:05:00.795Z,1901
2023-05-10T06:10:00.764Z,1901
2023-05-10T06:15:00.900Z,1487
2023-05-10T06:20:00.961Z,812
2023-05-10T06:25:00.836Z,812
2023-05-10T06:30:11.905Z,1719
2023-05-10T06:35:00.785Z,2600
2023-05-10T06:40:00.786Z,3750
2023-05-10T06:45:00.886Z,3330
2023-05-10T06:50:00.723Z,1794
2023-05-10T06:55:00.480Z,1595
2023-05-10T07:00:01.037Z,1798
2023-05-10T07:05:03.250Z,2030
2023-05-10T07:10:00.897Z,2048
2023-05-10T07:15:00.867Z,2048
2023-05-10T07:20:02.153Z,2048
2023-05-10T07:25:01.067Z,2048
2023-05-10T07:30:00.949Z,4533
2023-05-10T07:35:00.912Z,4017
2023-05-10T07:40:00.992Z,4050
2023-05-10T07:45:00.793Z,5820
2023-05-10T07:50:01.509Z,6589
2023-05-10T07:55:00.656Z,10681
2023-05-10T08:00:00.767Z,9482
2023-05-10T08:05:00.861Z,8420
2023-05-10T08:10:00.930Z,5898
2023-05-10T08:15:00.578Z,5898
2023-05-10T08:20:01.023Z,6659
2023-05-10T08:25:00.832Z,6659
2023-05-10T08:30:00.722Z,8453
2023-05-10T08:35:01.792Z,9502
2023-05-10T08:40:00.876Z,8343
2023-05-10T08:45:01.312Z,5232
2023-05-10T08:50:01.177Z,4654
2023-05-10T08:55:00.752Z,3674
2023-05-10T09:00:01.016Z,2885
2023-05-10T09:05:01.278Z,3243
2023-05-10T09:10:01.109Z,4100
2023-05-10T09:15:01.123Z,4615
2023-05-10T09:20:00.686Z,4615
2023-05-10T09:25:00.946Z,4097
2023-05-10T09:30:00.789Z,4097
2023-05-10T09:35:01.122Z,4793
2023-05-10T09:40:01.029Z,5189
2023-05-10T09:45:00.697Z,6558
2023-05-10T09:50:01.296Z,8310
2023-05-10T09:55:00.619Z,8310
2023-05-10T10:00:00.780Z,9369
2023-05-10T10:05:01.209Z,9369
2023-05-10T10:10:00.888Z,13627
2023-05-10T10:15:00.752Z,15336
2023-05-10T10:20:00.847Z,13649
2023-05-10T10:25:01.187Z,10762
2023-05-10T10:30:00.871Z,9751
2023-05-10T10:35:00.610Z,8509
2023-05-10T10:40:00.791Z,5955
2023-05-10T10:45:00.988Z,7581
2023-05-10T10:50:00.916Z,9609
2023-05-10T10:55:01.449Z,10797
2023-05-10T11:00:01.161Z,10797
2023-05-10T11:05:00.753Z,10797
2023-05-10T11:10:00.751Z,10797
2023-05-10T11:15:01.151Z,10797
2023-05-10T11:20:00.647Z,10797
2023-05-10T11:25:00.600Z,17370
2023-05-10T11:30:02.595Z,22111
2023-05-10T11:35:01.252Z,27283
2023-05-10T11:40:00.793Z,24316
2023-05-10T11:45:00.512Z,24316
2023-05-10T11:50:02.581Z,21637
2023-05-10T11:55:00.861Z,19253
2023-05-10T12:00:00.609Z,17112
2023-05-10T12:05:01.738Z,15216
2023-05-10T12:10:01.218Z,12120
2023-05-10T12:15:00.940Z,10782
2023-05-10T12:20:00.877Z,7513
2023-05-10T12:25:00.676Z,6663
2023-05-10T12:30:01.129Z,6663
2023-05-10T12:35:00.877Z,6663
2023-05-10T12:40:01.026Z,6663
2023-05-10T12:45:01.439Z,6663
2023-05-10T12:50:00.486Z,7490
2023-05-10T12:55:00.983Z,7490
2023-05-10T13:00:00.650Z,7490
2023-05-10T13:05:01.208Z,7490
2023-05-10T13:10:00.565Z,8431
2023-05-10T13:15:00.879Z,10112
2023-05-10T13:20:00.672Z,10112
2023-05-10T13:25:00.615Z,10112
2023-05-10T13:30:01.058Z,10112
2023-05-10T13:35:00.857Z,13627
2023-05-10T13:40:00.961Z,10595
2023-05-10T13:45:00.782Z,10595
2023-05-10T13:50:00.927Z,10595
2023-05-10T13:55:00.637Z,9404
2023-05-10T14:00:00.589Z,9404
2023-05-10T14:05:00.841Z,9404
2023-05-10T14:10:00.943Z,13658
2023-05-10T14:15:00.858Z,17250
2023-05-10T14:20:00.785Z,19391
2023-05-10T14:25:01.170Z,51665
2023-05-10T14:30:01.262Z,23036
2023-05-10T14:35:01.271Z,18168
2023-05-10T14:40:00.788Z,10730
2023-05-10T14:45:00.517Z,10730
2023-05-10T14:50:00.683Z,8422
2023-05-10T14:55:00.705Z,7482
2023-05-10T15:00:00.802Z,4022
2023-05-10T15:05:00.710Z,2182
2023-05-10T15:10:00.642Z,1937
2023-05-10T15:15:01.187Z,1719
2023-05-10T15:20:01.435Z,1354
2023-05-10T15:25:00.663Z,1205
2023-05-10T15:30:00.992Z,952
2023-05-10T15:35:01.656Z,662
2023-05-10T15:40:00.840Z,746
2023-05-10T15:45:00.607Z,1219
2023-05-10T15:50:00.756Z,1546
2023-05-10T15:55:00.851Z,1958
2023-05-10T16:00:00.962Z,1983
2023-05-10T16:05:00.838Z,2201
2023-05-10T16:10:01.307Z,3158
2023-05-10T16:15:00.819Z,3551
2023-05-10T16:20:00.851Z,3551
2023-05-10T16:25:01.326Z,4494
2023-05-10T16:30:00.750Z,5063
2023-05-10T16:35:01.412Z,6439
2023-05-10T16:40:01.529Z,7258
2023-05-10T16:45:01.043Z,6458
2023-05-10T16:50:00.653Z,4018
2023-05-10T16:55:00.826Z,3816
2023-05-10T17:00:00.956Z,3816
2023-05-10T17:05:01.759Z,3816
2023-05-10T17:10:01.242Z,3569
2023-05-10T17:15:01.448Z,3569
2023-05-10T17:20:01.106Z,3154
2023-05-10T17:25:00.918Z,3583
2023-05-10T17:30:00.953Z,2785
2023-05-10T17:35:00.883Z,2477
2023-05-10T17:40:02.411Z,2199
2023-05-10T17:45:01.131Z,2207
2023-05-10T17:50:00.636Z,1743
2023-05-10T17:55:01.013Z,1551
2023-05-10T18:00:00.692Z,1551
2023-05-10T18:05:00.775Z,1378
2023-05-10T18:10:00.586Z,1226
2023-05-10T18:15:01.045Z,970
2023-05-10T18:20:00.749Z,862
2023-05-10T18:25:00.745Z,765
2023-05-10T18:30:01.035Z,680
2023-05-10T18:35:01.037Z,605
2023-05-10T18:40:01.017Z,605
2023-05-10T18:45:01.568Z,540
2023-05-10T18:50:00.602Z,538
2023-05-10T18:55:00.555Z,456
2023-05-10T19:00:00.532Z,387
2023-05-10T19:05:01.834Z,277
2023-05-10T19:10:00.644Z,199
2023-05-10T19:15:01.454Z,200
2023-05-10T19:20:00.658Z,144
2023-05-10T19:25:00.523Z,87
2023-05-10T19:30:00.673Z,45
2023-05-10T19:35:00.702Z,31
2023-05-10T19:40:00.787Z,17
2023-05-10T19:45:02.237Z,10
2023-05-10T19:50:00.945Z,10
2023-05-10T19:55:00.812Z,3
2023-05-10T20:00:00.892Z,3
2023-05-10T20:05:00.573Z,3
2023-05-10T20:10:01.305Z,3
2023-05-10T20:15:00.896Z,3
2023-05-10T20:20:00.630Z,3
2023-05-10T20:25:00.729Z,3
2023-05-10T20:30:00.563Z,3
2023-05-10T20:35:01.114Z,0
2023-05-10T20:40:00.579Z,0
2023-05-10T20:45:00.592Z,0
2023-05-10T20:50:00.917Z,0
2023-05-10T20:55:00.512Z,0
2023-05-10T21:00:00.987Z,0
2023-05-10T21:05:01.529Z,0
2023-05-10T21:10:00.643Z,0
2023-05-10T21:15:00.897Z,0
2023-05-10T21:20:00.830Z,0
2023-05-10T21:25:01.020Z,0
2023-05-10T21:30:01.070Z,0
2023-05-10T21:35:01.189Z,0
2023-05-10T21:40:00.990Z,0
2023-05-10T21:45:01.463Z,0
2023-05-10T21:50:01.113Z,0
2023-05-10T21:55:00.541Z,0
2023-05-10T22:00:00.646Z,0
2023-05-10T22:05:00.864Z,0
2023-05-10T22:10:01.860Z,0
2023-05-10T22:15:10.217Z,0
2023-05-10T22:20:00.524Z,0
2023-05-10T22:25:01.424Z,0
2023-05-10T22:30:00.749Z,0
2023-05-10T22:35:01.526Z,0
2023-05-10T22:40:00.607Z,0
2023-05-10T22:45:01.637Z,0
2023-05-10T22:50:00.703Z,0
2023-05-10T22:55:00.886Z,0
2023-05-10T23:00:01.012Z,0
2023-05-10T23:05:00.719Z,0
2023-05-10T23:10:00.865Z,0
2023-05-10T23:15:00.862Z,0
2023-05-10T23:20:00.783Z,0
2023-05-10T23:25:00.984Z,0
2023-05-10T23:30:00.744Z,0
2023-05-10T23:35:00.963Z,0
2023-05-10T23:40:01.035Z,0
2023-05-10T23:45:01.198Z,0
2023-05-10T23:50:00.881Z,0
2023-05-10T23:55:00.937Z,0
